sensor_id;sensor_type;location;lat;lon;timestamp;P1;durP1;ratioP1;P2;durP2;ratioP2
15104;SDS011;7653;48.994;9.212;2023-04-10T00:00:50;10.50;;;8.23;;
15104;SDS011;7653;48.994;9.212;2023-04-10T00:03:21;10.63;;;8.50;;
15104;SDS011;7653;48.994;9.212;2023-04-10T00:05:48;10.20;;;7.53;;
15104;SDS011;7653;48.994;9.212;2023-04-10T00:08:21;9.77;;;7.63;;
15104;SDS011;7653;48.994;9.212;2023-04-10T00:10:47;9.13;;;7.77;;
15104;SDS011;7653;48.994;9.212;2023-04-10T00:13:13;9.83;;;7.20;;
15104;SDS011;7653;48.994;9.212;2023-04-10T00:15:42;10.20;;;7.70;;
15104;SDS011;7653;48.994;9.212;2023-04-10T00:18:08;10.80;;;7.67;;
15104;SDS011;7653;48.994;9.212;2023-04-10T00:20:33;11.40;;;8.17;;
15104;SDS011;7653;48.994;9.212;2023-04-10T00:22:59;11.90;;;8.40;;
15104;SDS011;7653;48.994;9.212;2023-04-10T00:25:28;10.83;;;8.23;;
15104;SDS011;7653;48.994;9.212;2023-04-10T00:27:54;10.60;;;8.17;;
15104;SDS011;7653;48.994;9.212;2023-04-10T00:30:30;10.07;;;7.57;;
15104;SDS011;7653;48.994;9.212;2023-04-10T00:32:59;11.80;;;8.10;;
15104;SDS011;7653;48.994;9.212;2023-04-10T00:35:27;11.43;;;7.80;;
15104;SDS011;7653;48.994;9.212;2023-04-10T00:37:53;11.90;;;8.20;;
15104;SDS011;7653;48.994;9.212;2023-04-10T00:40:20;11.37;;;8.00;;
15104;SDS011;7653;48.994;9.212;2023-04-10T00:42:46;12.33;;;8.33;;
15104;SDS011;7653;48.994;9.212;2023-04-10T00:45:18;11.27;;;8.90;;
15104;SDS011;7653;48.994;9.212;2023-04-10T00:47:44;10.13;;;8.30;;
15104;SDS011;7653;48.994;9.212;2023-04-10T00:50:10;10.93;;;8.33;;
15104;SDS011;7653;48.994;9.212;2023-04-10T00:52:38;11.27;;;8.20;;
15104;SDS011;7653;48.994;9.212;2023-04-10T00:55:07;11.67;;;8.47;;
15104;SDS011;7653;48.994;9.212;2023-04-10T00:57:33;10.50;;;8.13;;
15104;SDS011;7653;48.994;9.212;2023-04-10T00:59:59;13.30;;;7.87;;
15104;SDS011;7653;48.994;9.212;2023-04-10T01:02:28;11.37;;;7.87;;
15104;SDS011;7653;48.994;9.212;2023-04-10T01:04:54;12.63;;;8.30;;
15104;SDS011;7653;48.994;9.212;2023-04-10T01:07:26;10.73;;;8.20;;
15104;SDS011;7653;48.994;9.212;2023-04-10T01:15:22;10.90;;;7.87;;
15104;SDS011;7653;48.994;9.212;2023-04-10T01:18:00;11.33;;;7.50;;
15104;SDS011;7653;48.994;9.212;2023-04-10T01:20:34;9.90;;;7.67;;
15104;SDS011;7653;48.994;9.212;2023-04-10T01:26:06;10.17;;;7.93;;
15104;SDS011;7653;48.994;9.212;2023-04-10T01:31:33;10.73;;;7.63;;
15104;SDS011;7653;48.994;9.212;2023-04-10T01:34:05;10.50;;;7.53;;
15104;SDS011;7653;48.994;9.212;2023-04-10T01:36:54;10.57;;;7.73;;
15104;SDS011;7653;48.994;9.212;2023-04-10T01:39:28;11.40;;;8.03;;
15104;SDS011;7653;48.994;9.212;2023-04-10T01:42:08;11.20;;;7.90;;
15104;SDS011;7653;48.994;9.212;2023-04-10T01:44:52;11.57;;;8.10;;
15104;SDS011;7653;48.994;9.212;2023-04-10T01:47:18;11.77;;;8.20;;
15104;SDS011;7653;48.994;9.212;2023-04-10T01:49:45;11.57;;;8.30;;
15104;SDS011;7653;48.994;9.212;2023-04-10T01:52:22;11.60;;;8.20;;
15104;SDS011;7653;48.994;9.212;2023-04-10T01:54:55;13.37;;;8.57;;
15104;SDS011;7653;48.994;9.212;2023-04-10T01:57:22;11.23;;;8.30;;
15104;SDS011;7653;48.994;9.212;2023-04-10T01:59:51;11.87;;;8.83;;
15104;SDS011;7653;48.994;9.212;2023-04-10T02:02:17;10.80;;;8.30;;
15104;SDS011;7653;48.994;9.212;2023-04-10T02:04:42;10.67;;;8.13;;
15104;SDS011;7653;48.994;9.212;2023-04-10T02:07:24;12.73;;;7.83;;
15104;SDS011;7653;48.994;9.212;2023-04-10T02:12:49;10.07;;;7.70;;
15104;SDS011;7653;48.994;9.212;2023-04-10T02:15:23;10.33;;;7.73;;
15104;SDS011;7653;48.994;9.212;2023-04-10T02:17:56;11.60;;;8.27;;
15104;SDS011;7653;48.994;9.212;2023-04-10T02:20:24;10.93;;;8.07;;
15104;SDS011;7653;48.994;9.212;2023-04-10T02:22:50;10.53;;;7.63;;
15104;SDS011;7653;48.994;9.212;2023-04-10T02:25:17;9.23;;;7.40;;
15104;SDS011;7653;48.994;9.212;2023-04-10T02:27:43;10.73;;;7.93;;
15104;SDS011;7653;48.994;9.212;2023-04-10T02:30:09;11.07;;;8.23;;
15104;SDS011;7653;48.994;9.212;2023-04-10T02:32:53;10.97;;;8.20;;
15104;SDS011;7653;48.994;9.212;2023-04-10T02:35:22;10.50;;;7.77;;
15104;SDS011;7653;48.994;9.212;2023-04-10T02:37:48;9.93;;;7.50;;
15104;SDS011;7653;48.994;9.212;2023-04-10T02:40:17;11.17;;;7.43;;
15104;SDS011;7653;48.994;9.212;2023-04-10T02:42:46;10.83;;;8.50;;
15104;SDS011;7653;48.994;9.212;2023-04-10T02:45:12;11.60;;;8.00;;
15104;SDS011;7653;48.994;9.212;2023-04-10T02:47:37;13.10;;;8.07;;
15104;SDS011;7653;48.994;9.212;2023-04-10T02:50:06;10.90;;;7.60;;
15104;SDS011;7653;48.994;9.212;2023-04-10T02:52:35;11.40;;;8.40;;
15104;SDS011;7653;48.994;9.212;2023-04-10T02:55:00;11.73;;;8.37;;
15104;SDS011;7653;48.994;9.212;2023-04-10T02:57:26;12.00;;;7.87;;
15104;SDS011;7653;48.994;9.212;2023-04-10T02:59:52;12.00;;;8.00;;
15104;SDS011;7653;48.994;9.212;2023-04-10T03:02:18;9.47;;;7.00;;
15104;SDS011;7653;48.994;9.212;2023-04-10T03:04:45;12.03;;;8.27;;
15104;SDS011;7653;48.994;9.212;2023-04-10T03:07:11;10.33;;;7.63;;
15104;SDS011;7653;48.994;9.212;2023-04-10T03:09:39;11.43;;;8.00;;
15104;SDS011;7653;48.994;9.212;2023-04-10T03:12:13;11.97;;;8.23;;
15104;SDS011;7653;48.994;9.212;2023-04-10T03:14:42;13.17;;;8.90;;
15104;SDS011;7653;48.994;9.212;2023-04-10T03:17:08;11.67;;;7.77;;
15104;SDS011;7653;48.994;9.212;2023-04-10T03:19:34;11.47;;;8.60;;
15104;SDS011;7653;48.994;9.212;2023-04-10T03:21:59;10.93;;;8.00;;
15104;SDS011;7653;48.994;9.212;2023-04-10T03:24:26;10.27;;;7.80;;
15104;SDS011;7653;48.994;9.212;2023-04-10T03:26:52;11.37;;;8.23;;
15104;SDS011;7653;48.994;9.212;2023-04-10T03:29:21;11.10;;;8.07;;
15104;SDS011;7653;48.994;9.212;2023-04-10T03:32:02;10.97;;;8.07;;
15104;SDS011;7653;48.994;9.212;2023-04-10T03:34:33;12.17;;;7.70;;
15104;SDS011;7653;48.994;9.212;2023-04-10T03:37:07;12.67;;;8.80;;
15104;SDS011;7653;48.994;9.212;2023-04-10T03:39:43;11.93;;;8.50;;
15104;SDS011;7653;48.994;9.212;2023-04-10T03:42:08;11.40;;;8.67;;
15104;SDS011;7653;48.994;9.212;2023-04-10T03:44:34;12.83;;;8.63;;
15104;SDS011;7653;48.994;9.212;2023-04-10T03:47:00;12.23;;;8.03;;
15104;SDS011;7653;48.994;9.212;2023-04-10T03:49:26;10.70;;;7.50;;
15104;SDS011;7653;48.994;9.212;2023-04-10T03:51:53;12.93;;;8.43;;
15104;SDS011;7653;48.994;9.212;2023-04-10T03:54:18;12.27;;;8.63;;
15104;SDS011;7653;48.994;9.212;2023-04-10T03:56:44;11.47;;;8.33;;
15104;SDS011;7653;48.994;9.212;2023-04-10T03:59:10;9.60;;;7.40;;
15104;SDS011;7653;48.994;9.212;2023-04-10T04:01:36;11.80;;;8.47;;
15104;SDS011;7653;48.994;9.212;2023-04-10T04:04:02;12.17;;;8.27;;
15104;SDS011;7653;48.994;9.212;2023-04-10T04:06:27;11.13;;;7.90;;
15104;SDS011;7653;48.994;9.212;2023-04-10T04:08:53;10.53;;;8.20;;
15104;SDS011;7653;48.994;9.212;2023-04-10T04:11:19;9.77;;;7.50;;
15104;SDS011;7653;48.994;9.212;2023-04-10T04:13:50;11.60;;;8.70;;
15104;SDS011;7653;48.994;9.212;2023-04-10T04:16:16;10.20;;;7.30;;
15104;SDS011;7653;48.994;9.212;2023-04-10T04:18:41;10.07;;;7.10;;
15104;SDS011;7653;48.994;9.212;2023-04-10T04:21:07;10.17;;;7.40;;
15104;SDS011;7653;48.994;9.212;2023-04-10T04:23:33;10.50;;;7.60;;
15104;SDS011;7653;48.994;9.212;2023-04-10T04:26:00;11.53;;;7.60;;
15104;SDS011;7653;48.994;9.212;2023-04-10T04:28:26;17.23;;;10.90;;
15104;SDS011;7653;48.994;9.212;2023-04-10T04:30:52;20.13;;;12.63;;
15104;SDS011;7653;48.994;9.212;2023-04-10T04:33:21;14.40;;;9.03;;
15104;SDS011;7653;48.994;9.212;2023-04-10T04:35:48;12.53;;;8.87;;
15104;SDS011;7653;48.994;9.212;2023-04-10T04:38:13;14.20;;;8.97;;
15104;SDS011;7653;48.994;9.212;2023-04-10T04:40:40;11.93;;;7.83;;
15104;SDS011;7653;48.994;9.212;2023-04-10T04:43:06;9.60;;;7.83;;
15104;SDS011;7653;48.994;9.212;2023-04-10T04:45:32;11.33;;;8.40;;
15104;SDS011;7653;48.994;9.212;2023-04-10T04:47:58;13.70;;;8.57;;
15104;SDS011;7653;48.994;9.212;2023-04-10T04:50:24;11.23;;;8.43;;
15104;SDS011;7653;48.994;9.212;2023-04-10T04:52:50;11.27;;;7.87;;
15104;SDS011;7653;48.994;9.212;2023-04-10T04:55:15;10.63;;;7.80;;
15104;SDS011;7653;48.994;9.212;2023-04-10T04:57:41;12.13;;;8.43;;
15104;SDS011;7653;48.994;9.212;2023-04-10T05:00:07;10.53;;;7.83;;
15104;SDS011;7653;48.994;9.212;2023-04-10T05:02:33;11.10;;;7.67;;
15104;SDS011;7653;48.994;9.212;2023-04-10T05:04:59;11.30;;;8.33;;
15104;SDS011;7653;48.994;9.212;2023-04-10T05:07:25;10.40;;;7.70;;
15104;SDS011;7653;48.994;9.212;2023-04-10T05:09:51;11.00;;;7.83;;
15104;SDS011;7653;48.994;9.212;2023-04-10T05:12:16;12.20;;;8.60;;
15104;SDS011;7653;48.994;9.212;2023-04-10T05:14:45;11.97;;;8.40;;
15104;SDS011;7653;48.994;9.212;2023-04-10T05:17:11;10.97;;;7.80;;
15104;SDS011;7653;48.994;9.212;2023-04-10T05:19:37;10.80;;;7.60;;
15104;SDS011;7653;48.994;9.212;2023-04-10T05:22:05;11.90;;;8.33;;
15104;SDS011;7653;48.994;9.212;2023-04-10T05:24:31;10.50;;;7.67;;
15104;SDS011;7653;48.994;9.212;2023-04-10T05:26:57;11.17;;;7.83;;
15104;SDS011;7653;48.994;9.212;2023-04-10T05:29:22;11.93;;;8.93;;
15104;SDS011;7653;48.994;9.212;2023-04-10T05:31:51;11.83;;;7.90;;
15104;SDS011;7653;48.994;9.212;2023-04-10T05:34:19;11.37;;;8.13;;
15104;SDS011;7653;48.994;9.212;2023-04-10T05:36:53;12.10;;;8.73;;
15104;SDS011;7653;48.994;9.212;2023-04-10T05:39:24;13.47;;;8.57;;
15104;SDS011;7653;48.994;9.212;2023-04-10T05:41:53;12.63;;;8.47;;
15104;SDS011;7653;48.994;9.212;2023-04-10T05:44:31;11.77;;;8.17;;
15104;SDS011;7653;48.994;9.212;2023-04-10T05:46:57;12.93;;;8.43;;
15104;SDS011;7653;48.994;9.212;2023-04-10T05:49:26;12.03;;;8.70;;
15104;SDS011;7653;48.994;9.212;2023-04-10T05:51:55;13.70;;;9.20;;
15104;SDS011;7653;48.994;9.212;2023-04-10T05:54:24;12.13;;;8.60;;
15104;SDS011;7653;48.994;9.212;2023-04-10T05:56:50;11.97;;;8.40;;
15104;SDS011;7653;48.994;9.212;2023-04-10T05:59:15;11.80;;;8.37;;
15104;SDS011;7653;48.994;9.212;2023-04-10T06:01:42;11.10;;;8.20;;
15104;SDS011;7653;48.994;9.212;2023-04-10T06:04:09;9.97;;;7.77;;
15104;SDS011;7653;48.994;9.212;2023-04-10T06:06:34;11.97;;;8.13;;
15104;SDS011;7653;48.994;9.212;2023-04-10T06:09:01;11.70;;;8.50;;
15104;SDS011;7653;48.994;9.212;2023-04-10T06:11:32;10.80;;;7.80;;
15104;SDS011;7653;48.994;9.212;2023-04-10T06:14:09;12.97;;;7.80;;
15104;SDS011;7653;48.994;9.212;2023-04-10T06:16:39;13.33;;;9.07;;
15104;SDS011;7653;48.994;9.212;2023-04-10T06:19:14;12.70;;;9.37;;
15104;SDS011;7653;48.994;9.212;2023-04-10T06:21:45;12.47;;;9.33;;
15104;SDS011;7653;48.994;9.212;2023-04-10T06:24:15;16.40;;;12.20;;
15104;SDS011;7653;48.994;9.212;2023-04-10T06:26:46;12.50;;;9.03;;
15104;SDS011;7653;48.994;9.212;2023-04-10T06:29:36;12.33;;;8.73;;
15104;SDS011;7653;48.994;9.212;2023-04-10T06:32:02;14.10;;;10.60;;
15104;SDS011;7653;48.994;9.212;2023-04-10T06:34:31;14.30;;;10.17;;
15104;SDS011;7653;48.994;9.212;2023-04-10T06:36:57;13.30;;;9.50;;
15104;SDS011;7653;48.994;9.212;2023-04-10T06:39:22;12.43;;;9.57;;
15104;SDS011;7653;48.994;9.212;2023-04-10T06:41:51;13.17;;;9.77;;
15104;SDS011;7653;48.994;9.212;2023-04-10T06:44:16;14.37;;;10.33;;
15104;SDS011;7653;48.994;9.212;2023-04-10T06:46:48;13.03;;;10.20;;
15104;SDS011;7653;48.994;9.212;2023-04-10T06:49:16;13.43;;;10.20;;
15104;SDS011;7653;48.994;9.212;2023-04-10T06:51:48;13.23;;;9.23;;
15104;SDS011;7653;48.994;9.212;2023-04-10T06:54:29;13.63;;;8.10;;
15104;SDS011;7653;48.994;9.212;2023-04-10T06:56:57;11.70;;;8.37;;
15104;SDS011;7653;48.994;9.212;2023-04-10T06:59:31;12.07;;;8.43;;
15104;SDS011;7653;48.994;9.212;2023-04-10T07:02:03;11.03;;;8.10;;
15104;SDS011;7653;48.994;9.212;2023-04-10T07:04:34;11.07;;;8.13;;
15104;SDS011;7653;48.994;9.212;2023-04-10T07:07:05;12.13;;;8.47;;
15104;SDS011;7653;48.994;9.212;2023-04-10T07:09:33;10.37;;;7.97;;
15104;SDS011;7653;48.994;9.212;2023-04-10T07:12:04;11.43;;;8.30;;
15104;SDS011;7653;48.994;9.212;2023-04-10T07:14:39;10.63;;;7.97;;
15104;SDS011;7653;48.994;9.212;2023-04-10T07:17:08;10.57;;;7.77;;
15104;SDS011;7653;48.994;9.212;2023-04-10T07:19:36;10.93;;;7.97;;
15104;SDS011;7653;48.994;9.212;2023-04-10T07:22:02;11.67;;;7.97;;
15104;SDS011;7653;48.994;9.212;2023-04-10T07:24:28;9.50;;;8.10;;
15104;SDS011;7653;48.994;9.212;2023-04-10T07:26:58;10.10;;;7.33;;
15104;SDS011;7653;48.994;9.212;2023-04-10T07:29:27;10.13;;;7.30;;
15104;SDS011;7653;48.994;9.212;2023-04-10T07:31:57;10.13;;;7.10;;
15104;SDS011;7653;48.994;9.212;2023-04-10T07:34:25;9.70;;;7.00;;
15104;SDS011;7653;48.994;9.212;2023-04-10T07:36:56;8.67;;;7.07;;
15104;SDS011;7653;48.994;9.212;2023-04-10T07:39:24;9.03;;;6.57;;
15104;SDS011;7653;48.994;9.212;2023-04-10T07:41:52;7.93;;;6.47;;
15104;SDS011;7653;48.994;9.212;2023-04-10T07:44:21;8.50;;;6.80;;
15104;SDS011;7653;48.994;9.212;2023-04-10T07:46:49;7.80;;;6.47;;
15104;SDS011;7653;48.994;9.212;2023-04-10T07:49:18;8.60;;;6.00;;
15104;SDS011;7653;48.994;9.212;2023-04-10T07:51:49;7.13;;;6.10;;
15104;SDS011;7653;48.994;9.212;2023-04-10T07:54:18;9.70;;;5.90;;
15104;SDS011;7653;48.994;9.212;2023-04-10T07:56:44;5.87;;;5.00;;
15104;SDS011;7653;48.994;9.212;2023-04-10T07:59:10;5.43;;;4.73;;
15104;SDS011;7653;48.994;9.212;2023-04-10T08:01:36;6.30;;;5.13;;
15104;SDS011;7653;48.994;9.212;2023-04-10T08:04:05;5.30;;;4.40;;
15104;SDS011;7653;48.994;9.212;2023-04-10T08:06:37;6.00;;;4.67;;
15104;SDS011;7653;48.994;9.212;2023-04-10T08:09:06;5.73;;;4.83;;
15104;SDS011;7653;48.994;9.212;2023-04-10T08:11:35;6.63;;;4.33;;
15104;SDS011;7653;48.994;9.212;2023-04-10T08:14:01;5.33;;;4.27;;
15104;SDS011;7653;48.994;9.212;2023-04-10T08:16:33;5.40;;;4.20;;
15104;SDS011;7653;48.994;9.212;2023-04-10T08:19:05;5.00;;;4.37;;
15104;SDS011;7653;48.994;9.212;2023-04-10T08:21:31;4.80;;;4.23;;
15104;SDS011;7653;48.994;9.212;2023-04-10T08:23:58;5.07;;;4.20;;
15104;SDS011;7653;48.994;9.212;2023-04-10T08:26:27;4.07;;;3.63;;
15104;SDS011;7653;48.994;9.212;2023-04-10T08:28:54;4.50;;;3.77;;
15104;SDS011;7653;48.994;9.212;2023-04-10T08:31:22;5.10;;;4.60;;
15104;SDS011;7653;48.994;9.212;2023-04-10T08:33:49;6.87;;;4.37;;
15104;SDS011;7653;48.994;9.212;2023-04-10T08:36:16;5.40;;;4.13;;
15104;SDS011;7653;48.994;9.212;2023-04-10T08:38:42;4.80;;;4.30;;
15104;SDS011;7653;48.994;9.212;2023-04-10T08:41:11;5.10;;;4.23;;
15104;SDS011;7653;48.994;9.212;2023-04-10T08:43:38;4.60;;;4.00;;
15104;SDS011;7653;48.994;9.212;2023-04-10T08:46:04;4.97;;;4.47;;
15104;SDS011;7653;48.994;9.212;2023-04-10T08:48:34;5.97;;;4.47;;
15104;SDS011;7653;48.994;9.212;2023-04-10T08:51:04;4.10;;;3.70;;
15104;SDS011;7653;48.994;9.212;2023-04-10T08:53:33;5.30;;;4.10;;
15104;SDS011;7653;48.994;9.212;2023-04-10T08:56:05;4.90;;;3.83;;
15104;SDS011;7653;48.994;9.212;2023-04-10T08:58:32;4.20;;;3.80;;
15104;SDS011;7653;48.994;9.212;2023-04-10T09:00:58;4.43;;;3.90;;
15104;SDS011;7653;48.994;9.212;2023-04-10T09:03:25;4.50;;;3.90;;
15104;SDS011;7653;48.994;9.212;2023-04-10T09:05:52;5.23;;;3.60;;
15104;SDS011;7653;48.994;9.212;2023-04-10T09:08:18;4.33;;;3.50;;
15104;SDS011;7653;48.994;9.212;2023-04-10T09:10:44;4.37;;;3.80;;
15104;SDS011;7653;48.994;9.212;2023-04-10T09:13:13;7.27;;;3.93;;
15104;SDS011;7653;48.994;9.212;2023-04-10T09:15:53;4.10;;;3.70;;
15104;SDS011;7653;48.994;9.212;2023-04-10T09:18:30;4.03;;;3.63;;
15104;SDS011;7653;48.994;9.212;2023-04-10T09:21:09;3.80;;;3.50;;
15104;SDS011;7653;48.994;9.212;2023-04-10T09:23:36;4.20;;;3.80;;
15104;SDS011;7653;48.994;9.212;2023-04-10T09:26:20;4.20;;;3.50;;
15104;SDS011;7653;48.994;9.212;2023-04-10T09:29:01;4.00;;;3.53;;
15104;SDS011;7653;48.994;9.212;2023-04-10T09:31:34;4.37;;;3.77;;
15104;SDS011;7653;48.994;9.212;2023-04-10T09:34:25;4.20;;;3.40;;
15104;SDS011;7653;48.994;9.212;2023-04-10T09:36:58;3.90;;;3.50;;
15104;SDS011;7653;48.994;9.212;2023-04-10T09:39:34;3.30;;;3.00;;
15104;SDS011;7653;48.994;9.212;2023-04-10T09:42:08;3.40;;;3.10;;
15104;SDS011;7653;48.994;9.212;2023-04-10T09:44:36;4.17;;;3.20;;
15104;SDS011;7653;48.994;9.212;2023-04-10T09:49:45;3.50;;;3.03;;
15104;SDS011;7653;48.994;9.212;2023-04-10T09:54:46;3.23;;;2.90;;
15104;SDS011;7653;48.994;9.212;2023-04-10T09:57:13;2.90;;;2.70;;
15104;SDS011;7653;48.994;9.212;2023-04-10T09:59:45;3.73;;;2.90;;
15104;SDS011;7653;48.994;9.212;2023-04-10T10:02:12;3.27;;;2.77;;
15104;SDS011;7653;48.994;9.212;2023-04-10T10:04:39;3.13;;;2.80;;
15104;SDS011;7653;48.994;9.212;2023-04-10T10:07:08;3.03;;;2.73;;
15104;SDS011;7653;48.994;9.212;2023-04-10T10:09:34;2.63;;;2.43;;
15104;SDS011;7653;48.994;9.212;2023-04-10T10:12:01;3.03;;;2.73;;
15104;SDS011;7653;48.994;9.212;2023-04-10T10:14:28;3.37;;;2.77;;
15104;SDS011;7653;48.994;9.212;2023-04-10T10:16:55;2.90;;;2.60;;
15104;SDS011;7653;48.994;9.212;2023-04-10T10:19:30;3.10;;;2.30;;
15104;SDS011;7653;48.994;9.212;2023-04-10T10:22:02;3.10;;;2.40;;
15104;SDS011;7653;48.994;9.212;2023-04-10T10:24:29;3.17;;;2.60;;
15104;SDS011;7653;48.994;9.212;2023-04-10T10:26:57;2.50;;;2.30;;
15104;SDS011;7653;48.994;9.212;2023-04-10T10:29:25;2.30;;;2.10;;
15104;SDS011;7653;48.994;9.212;2023-04-10T10:31:58;2.93;;;2.63;;
15104;SDS011;7653;48.994;9.212;2023-04-10T10:34:27;4.73;;;2.50;;
15104;SDS011;7653;48.994;9.212;2023-04-10T10:36:53;2.70;;;2.50;;
15104;SDS011;7653;48.994;9.212;2023-04-10T10:39:33;2.87;;;2.47;;
15104;SDS011;7653;48.994;9.212;2023-04-10T10:44:49;2.30;;;2.10;;
15104;SDS011;7653;48.994;9.212;2023-04-10T10:47:29;2.87;;;2.10;;
15104;SDS011;7653;48.994;9.212;2023-04-10T10:49:57;3.10;;;2.70;;
15104;SDS011;7653;48.994;9.212;2023-04-10T10:58:07;2.50;;;2.30;;
15104;SDS011;7653;48.994;9.212;2023-04-10T11:06:01;2.87;;;2.57;;
15104;SDS011;7653;48.994;9.212;2023-04-10T11:08:48;2.30;;;2.10;;
15104;SDS011;7653;48.994;9.212;2023-04-10T11:11:20;2.40;;;2.20;;
15104;SDS011;7653;48.994;9.212;2023-04-10T11:16:20;2.57;;;2.20;;
15104;SDS011;7653;48.994;9.212;2023-04-10T11:21:16;2.50;;;2.30;;
15104;SDS011;7653;48.994;9.212;2023-04-10T11:34:20;2.43;;;2.23;;
15104;SDS011;7653;48.994;9.212;2023-04-10T11:36:46;3.00;;;2.50;;
15104;SDS011;7653;48.994;9.212;2023-04-10T11:39:13;3.10;;;2.10;;
15104;SDS011;7653;48.994;9.212;2023-04-10T11:44:11;2.20;;;2.00;;
15104;SDS011;7653;48.994;9.212;2023-04-10T11:46:42;2.30;;;2.10;;
15104;SDS011;7653;48.994;9.212;2023-04-10T11:49:16;2.20;;;2.00;;
15104;SDS011;7653;48.994;9.212;2023-04-10T11:51:44;2.47;;;1.73;;
15104;SDS011;7653;48.994;9.212;2023-04-10T11:56:44;2.43;;;2.23;;
15104;SDS011;7653;48.994;9.212;2023-04-10T11:59:21;1.93;;;1.77;;
15104;SDS011;7653;48.994;9.212;2023-04-10T12:01:48;2.30;;;1.97;;
15104;SDS011;7653;48.994;9.212;2023-04-10T12:04:21;2.37;;;2.10;;
15104;SDS011;7653;48.994;9.212;2023-04-10T12:06:51;1.87;;;1.77;;
15104;SDS011;7653;48.994;9.212;2023-04-10T12:09:20;2.50;;;1.80;;
15104;SDS011;7653;48.994;9.212;2023-04-10T12:11:53;1.87;;;1.50;;
15104;SDS011;7653;48.994;9.212;2023-04-10T12:14:19;2.03;;;1.70;;
15104;SDS011;7653;48.994;9.212;2023-04-10T12:16:46;1.80;;;1.70;;
15104;SDS011;7653;48.994;9.212;2023-04-10T12:19:13;1.70;;;1.60;;
15104;SDS011;7653;48.994;9.212;2023-04-10T12:21:40;2.17;;;1.60;;
15104;SDS011;7653;48.994;9.212;2023-04-10T12:24:09;1.60;;;1.50;;
15104;SDS011;7653;48.994;9.212;2023-04-10T12:26:36;1.50;;;1.40;;
15104;SDS011;7653;48.994;9.212;2023-04-10T12:29:02;1.30;;;1.20;;
15104;SDS011;7653;48.994;9.212;2023-04-10T12:31:33;1.70;;;1.60;;
15104;SDS011;7653;48.994;9.212;2023-04-10T12:34:01;1.60;;;1.47;;
15104;SDS011;7653;48.994;9.212;2023-04-10T12:36:29;1.60;;;1.33;;
15104;SDS011;7653;48.994;9.212;2023-04-10T12:39:01;1.33;;;1.20;;
15104;SDS011;7653;48.994;9.212;2023-04-10T12:41:28;1.50;;;1.40;;
15104;SDS011;7653;48.994;9.212;2023-04-10T12:44:06;1.37;;;1.27;;
15104;SDS011;7653;48.994;9.212;2023-04-10T12:46:36;1.97;;;1.20;;
15104;SDS011;7653;48.994;9.212;2023-04-10T12:54:31;2.10;;;1.43;;
15104;SDS011;7653;48.994;9.212;2023-04-10T12:56:58;1.43;;;1.33;;
15104;SDS011;7653;48.994;9.212;2023-04-10T12:59:25;1.80;;;1.40;;
15104;SDS011;7653;48.994;9.212;2023-04-10T13:01:52;1.60;;;1.50;;
15104;SDS011;7653;48.994;9.212;2023-04-10T13:04:18;1.40;;;1.23;;
15104;SDS011;7653;48.994;9.212;2023-04-10T13:06:44;2.83;;;1.43;;
15104;SDS011;7653;48.994;9.212;2023-04-10T13:09:13;1.60;;;1.50;;
15104;SDS011;7653;48.994;9.212;2023-04-10T13:11:40;1.87;;;1.30;;
15104;SDS011;7653;48.994;9.212;2023-04-10T13:14:06;1.77;;;1.53;;
15104;SDS011;7653;48.994;9.212;2023-04-10T13:16:33;1.67;;;1.50;;
15104;SDS011;7653;48.994;9.212;2023-04-10T13:18:59;1.50;;;1.40;;
15104;SDS011;7653;48.994;9.212;2023-04-10T13:21:25;1.30;;;1.20;;
15104;SDS011;7653;48.994;9.212;2023-04-10T13:23:52;2.77;;;1.30;;
15104;SDS011;7653;48.994;9.212;2023-04-10T13:26:21;1.67;;;1.57;;
15104;SDS011;7653;48.994;9.212;2023-04-10T13:28:47;1.50;;;1.10;;
15104;SDS011;7653;48.994;9.212;2023-04-10T13:31:13;1.27;;;1.17;;
15104;SDS011;7653;48.994;9.212;2023-04-10T13:33:44;1.20;;;1.10;;
15104;SDS011;7653;48.994;9.212;2023-04-10T13:36:12;1.20;;;1.10;;
15104;SDS011;7653;48.994;9.212;2023-04-10T13:38:38;0.97;;;0.93;;
15104;SDS011;7653;48.994;9.212;2023-04-10T13:41:04;0.80;;;0.80;;
15104;SDS011;7653;48.994;9.212;2023-04-10T13:43:30;0.90;;;0.90;;
15104;SDS011;7653;48.994;9.212;2023-04-10T13:45:55;1.13;;;0.80;;
15104;SDS011;7653;48.994;9.212;2023-04-10T13:48:21;0.70;;;0.70;;
15104;SDS011;7653;48.994;9.212;2023-04-10T13:50:46;0.90;;;0.90;;
15104;SDS011;7653;48.994;9.212;2023-04-10T13:53:12;0.90;;;0.90;;
15104;SDS011;7653;48.994;9.212;2023-04-10T13:55:38;1.20;;;0.90;;
15104;SDS011;7653;48.994;9.212;2023-04-10T13:58:07;0.90;;;0.90;;
15104;SDS011;7653;48.994;9.212;2023-04-10T14:00:34;1.13;;;1.03;;
15104;SDS011;7653;48.994;9.212;2023-04-10T14:03:00;1.10;;;0.87;;
15104;SDS011;7653;48.994;9.212;2023-04-10T14:05:25;1.10;;;1.00;;
15104;SDS011;7653;48.994;9.212;2023-04-10T14:07:51;1.00;;;0.90;;
15104;SDS011;7653;48.994;9.212;2023-04-10T14:10:20;4.20;;;1.30;;
15104;SDS011;7653;48.994;9.212;2023-04-10T14:12:49;1.10;;;1.00;;
15104;SDS011;7653;48.994;9.212;2023-04-10T14:15:15;1.17;;;1.07;;
15104;SDS011;7653;48.994;9.212;2023-04-10T14:17:41;0.90;;;0.90;;
15104;SDS011;7653;48.994;9.212;2023-04-10T14:20:06;1.20;;;1.00;;
15104;SDS011;7653;48.994;9.212;2023-04-10T14:22:35;1.17;;;1.07;;
15104;SDS011;7653;48.994;9.212;2023-04-10T14:25:01;1.17;;;1.07;;
15104;SDS011;7653;48.994;9.212;2023-04-10T14:27:26;1.00;;;0.90;;
15104;SDS011;7653;48.994;9.212;2023-04-10T14:29:52;1.40;;;1.30;;
15104;SDS011;7653;48.994;9.212;2023-04-10T14:32:19;1.23;;;1.13;;
15104;SDS011;7653;48.994;9.212;2023-04-10T14:34:44;1.97;;;1.17;;
15104;SDS011;7653;48.994;9.212;2023-04-10T14:37:10;1.13;;;1.03;;
15104;SDS011;7653;48.994;9.212;2023-04-10T14:39:36;1.43;;;1.33;;
15104;SDS011;7653;48.994;9.212;2023-04-10T14:42:01;1.30;;;1.20;;
15104;SDS011;7653;48.994;9.212;2023-04-10T14:44:27;1.20;;;1.10;;
15104;SDS011;7653;48.994;9.212;2023-04-10T14:46:54;1.60;;;1.37;;
15104;SDS011;7653;48.994;9.212;2023-04-10T14:49:20;1.20;;;1.10;;
15104;SDS011;7653;48.994;9.212;2023-04-10T14:51:46;1.30;;;1.20;;
15104;SDS011;7653;48.994;9.212;2023-04-10T14:54:13;1.63;;;1.53;;
15104;SDS011;7653;48.994;9.212;2023-04-10T14:56:40;1.40;;;1.30;;
15104;SDS011;7653;48.994;9.212;2023-04-10T14:59:06;1.47;;;1.37;;
15104;SDS011;7653;48.994;9.212;2023-04-10T15:01:32;1.20;;;1.10;;
15104;SDS011;7653;48.994;9.212;2023-04-10T15:03:59;1.30;;;1.20;;
15104;SDS011;7653;48.994;9.212;2023-04-10T15:06:25;1.43;;;1.33;;
15104;SDS011;7653;48.994;9.212;2023-04-10T15:08:52;1.30;;;1.20;;
15104;SDS011;7653;48.994;9.212;2023-04-10T15:11:19;1.30;;;1.20;;
15104;SDS011;7653;48.994;9.212;2023-04-10T15:13:45;1.33;;;1.23;;
15104;SDS011;7653;48.994;9.212;2023-04-10T15:16:11;1.10;;;1.00;;
15104;SDS011;7653;48.994;9.212;2023-04-10T15:18:37;1.00;;;1.00;;
15104;SDS011;7653;48.994;9.212;2023-04-10T15:21:03;1.23;;;1.13;;
15104;SDS011;7653;48.994;9.212;2023-04-10T15:23:29;1.35;;;1.10;;
15104;SDS011;7653;48.994;9.212;2023-04-10T15:25:55;1.20;;;1.10;;
15104;SDS011;7653;48.994;9.212;2023-04-10T15:28:21;1.33;;;1.23;;
15104;SDS011;7653;48.994;9.212;2023-04-10T15:30:47;1.23;;;1.10;;
15104;SDS011;7653;48.994;9.212;2023-04-10T15:33:14;2.70;;;1.17;;
15104;SDS011;7653;48.994;9.212;2023-04-10T15:35:45;2.40;;;1.33;;
15104;SDS011;7653;48.994;9.212;2023-04-10T15:38:12;1.73;;;1.20;;
15104;SDS011;7653;48.994;9.212;2023-04-10T15:40:38;1.30;;;1.20;;
15104;SDS011;7653;48.994;9.212;2023-04-10T15:43:04;1.30;;;1.20;;
15104;SDS011;7653;48.994;9.212;2023-04-10T15:45:29;1.10;;;1.00;;
15104;SDS011;7653;48.994;9.212;2023-04-10T15:47:55;1.20;;;1.10;;
15104;SDS011;7653;48.994;9.212;2023-04-10T15:50:22;1.47;;;1.10;;
15104;SDS011;7653;48.994;9.212;2023-04-10T15:52:48;1.30;;;1.20;;
15104;SDS011;7653;48.994;9.212;2023-04-10T15:55:14;1.30;;;1.20;;
15104;SDS011;7653;48.994;9.212;2023-04-10T15:57:40;1.53;;;1.27;;
15104;SDS011;7653;48.994;9.212;2023-04-10T16:00:06;1.20;;;1.10;;
15104;SDS011;7653;48.994;9.212;2023-04-10T16:02:32;1.30;;;1.20;;